Time;durP1;ratioP1;P1;durP2;ratioP2;P2;SDS_P1;SDS_P2;PMS_P1;PMS_P2;Temp;Humidity;BMP_temperature;BMP_pressure;BME280_temperature;BME280_humidity;BME280_pressure;Samples;Min_cycle;Max_cycle;Signal;HPM_P1;HPM_P2
2023/02/05 00:02:08;;;;;;;205.88;189.68;;;;;;;-2.42;81.71;104030.44;5003758;28;20037;-73
2023/02/05 00:04:35;;;;;;;205.07;188.65;;;;;;;-2.36;81.46;104032.63;5004633;28;20030;-72
2023/02/05 00:07:01;;;;;;;216.98;201.02;;;;;;;-2.28;80.91;104022.44;4987273;28;20046;-72
2023/02/05 00:09:30;;;;;;;205.82;189.57;;;;;;;-2.37;81.09;104012.56;4979871;28;20049;-74
2023/02/05 00:11:55;;;;;;;215.23;199.43;;;;;;;-2.30;81.06;104019.09;5003215;28;20056;-73
2023/02/05 00:14:22;;;;;;;212.93;196.80;;;;;;;-2.46;81.43;104014.03;4984475;28;20480;-73
2023/02/05 00:16:47;;;;;;;205.23;188.88;;;;;;;-2.50;81.75;104009.94;4997012;28;20042;-72
2023/02/05 00:19:13;;;;;;;205.82;189.27;;;;;;;-2.59;81.96;104016.63;4999565;28;20827;-72
2023/02/05 00:21:39;;;;;;;214.82;198.75;;;;;;;-2.47;81.69;104010.56;4983936;28;20080;-71
2023/02/05 00:24:05;;;;;;;217.13;201.15;;;;;;;-2.49;81.52;104016.88;4985870;28;20080;-73
2023/02/05 00:26:31;;;;;;;205.77;189.52;;;;;;;-2.49;81.62;103991.47;4986628;28;20034;-73
2023/02/05 00:28:56;;;;;;;210.40;194.57;;;;;;;-2.47;81.48;103986.94;5005738;28;20156;-72
2023/02/05 00:31:23;;;;;;;207.07;190.75;;;;;;;-2.51;81.96;103977.63;5005714;28;20042;-72
2023/02/05 00:33:49;;;;;;;202.95;187.05;;;;;;;-2.57;81.67;103970.16;4986147;28;20041;-72
2023/02/05 00:36:16;;;;;;;205.90;189.68;;;;;;;-2.58;82.01;103972.88;4999455;28;20117;-71
2023/02/05 00:38:44;;;;;;;208.27;191.85;;;;;;;-2.51;81.35;103963.63;4998719;28;20558;-74
2023/02/05 00:41:10;;;;;;;214.88;199.05;;;;;;;-2.42;81.05;103956.94;5002153;28;20049;-71
2023/02/05 00:43:37;;;;;;;234.02;215.18;;;;;;;-2.47;81.02;103947.56;4971422;28;20439;-72
2023/02/05 00:46:03;;;;;;;265.70;243.13;;;;;;;-2.54;81.07;103941.06;5015950;28;20073;-74
2023/02/05 00:48:29;;;;;;;317.05;284.42;;;;;;;-2.53;81.38;103927.00;4995109;28;20053;-71
2023/02/05 00:50:55;;;;;;;245.93;224.15;;;;;;;-2.53;81.14;103931.41;4998400;28;20593;-72
2023/02/05 00:53:21;;;;;;;236.43;217.00;;;;;;;-2.51;81.17;103950.50;4982846;28;20330;-74
2023/02/05 00:55:47;;;;;;;222.30;204.75;;;;;;;-2.70;82.24;103943.06;4998799;28;20038;-73
2023/02/05 00:58:13;;;;;;;219.75;203.32;;;;;;;-2.80;82.75;103955.09;4997971;28;20034;-72
2023/02/05 01:00:38;;;;;;;224.40;204.50;;;;;;;-2.82;82.50;103951.75;5001219;28;20041;-73
2023/02/05 01:03:04;;;;;;;198.32;184.23;;;;;;;-2.85;83.11;103941.44;4984116;28;20034;-75
2023/02/05 01:05:32;;;;;;;210.13;192.23;;;;;;;-2.83;82.56;103937.81;4986570;28;20084;-72
2023/02/05 01:08:16;;;;;;;239.50;217.55;;;;;;;-2.79;82.01;103938.41;4998154;28;20065;-72
2023/02/05 01:10:45;;;;;;;220.82;201.98;;;;;;;-2.60;81.80;103919.66;4970352;28;20137;-73
2023/02/05 01:13:12;;;;;;;368.38;331.52;;;;;;;-2.72;81.43;103920.47;5000389;28;20030;-72
2023/02/05 01:15:37;;;;;;;297.52;269.80;;;;;;;-2.78;81.73;103925.22;5001570;28;20041;-72
2023/02/05 01:18:03;;;;;;;290.77;261.80;;;;;;;-2.75;81.81;103922.38;4972993;28;20044;-73
2023/02/05 01:20:29;;;;;;;318.90;289.92;;;;;;;-2.61;81.11;103916.19;5007028;28;20040;-72
2023/02/05 01:22:55;;;;;;;249.52;229.48;;;;;;;-2.68;80.96;103904.44;5006110;28;20038;-74
2023/02/05 01:25:21;;;;;;;229.65;212.50;;;;;;;-2.76;81.18;103897.09;5007243;28;20458;-73
2023/02/05 01:27:47;;;;;;;265.08;243.07;;;;;;;-2.84;81.48;103890.69;4987911;28;20057;-74
2023/02/05 01:30:13;;;;;;;245.32;226.82;;;;;;;-2.76;81.35;103891.00;4988033;28;20034;-74
2023/02/05 01:32:39;;;;;;;246.25;227.13;;;;;;;-2.68;80.80;103887.84;4989932;28;20434;-74
2023/02/05 01:35:06;;;;;;;225.95;207.35;;;;;;;-2.88;81.07;103886.59;5000923;28;20034;-74
2023/02/05 01:37:31;;;;;;;214.90;197.75;;;;;;;-2.85;81.61;103878.50;5000571;28;20380;-73
2023/02/05 01:39:57;;;;;;;198.00;182.45;;;;;;;-2.83;80.97;103885.34;5031226;28;20506;-72
2023/02/05 01:42:25;;;;;;;225.27;207.20;;;;;;;-2.75;81.05;103882.19;4983259;28;20428;-71
2023/02/05 01:45:22;;;;;;;240.57;220.55;;;;;;;-2.81;81.13;103880.81;4985421;28;20490;-73
2023/02/05 01:47:51;;;;;;;239.45;221.02;;;;;;;-2.77;80.95;103873.59;4998068;28;20112;-73
2023/02/05 01:50:25;;;;;;;203.30;187.15;;;;;;;-2.77;80.80;103873.59;4985483;28;20034;-74
2023/02/05 01:52:53;;;;;;;257.50;237.13;;;;;;;-2.75;80.74;103871.69;4996946;28;20038;-73
2023/02/05 01:55:20;;;;;;;221.93;205.23;;;;;;;-2.74;80.95;103873.38;4969175;28;20037;-73
2023/02/05 01:57:48;;;;;;;256.27;234.75;;;;;;;-2.79;81.16;103867.59;4983196;28;20049;-72
2023/02/05 02:00:14;;;;;;;225.98;208.95;;;;;;;-2.71;80.34;103873.16;5011119;28;20044;-74
2023/02/05 02:02:43;;;;;;;198.45;182.90;;;;;;;-2.75;81.20;103876.94;4997246;28;20144;-72
2023/02/05 02:05:13;;;;;;;208.27;193.30;;;;;;;-2.65;80.39;103875.34;4983570;28;20819;-73
2023/02/05 02:07:39;;;;;;;211.38;196.18;;;;;;;-2.75;80.30;103867.28;4983233;28;20108;-72
2023/02/05 02:10:08;;;;;;;208.30;193.43;;;;;;;-2.70;80.19;103860.91;5014066;28;20120;-72
2023/02/05 02:12:37;;;;;;;207.70;192.70;;;;;;;-2.72;80.53;103850.50;4995183;28;20038;-72
2023/02/05 02:15:09;;;;;;;215.23;199.75;;;;;;;-2.72;80.71;103853.13;4987837;28;20491;-73
2023/02/05 02:17:38;;;;;;;208.07;192.80;;;;;;;-2.72;80.64;103860.97;5008589;28;20490;-72
2023/02/05 02:20:08;;;;;;;196.45;181.35;;;;;;;-2.75;80.65;103861.22;4982243;28;20036;-74
2023/02/05 02:22:55;;;;;;;197.50;182.07;;;;;;;-2.70;80.91;103880.09;4998836;28;20124;-72
2023/02/05 02:25:43;;;;;;;207.80;192.90;;;;;;;-2.58;80.35;103892.34;5011509;28;20029;-73
2023/02/05 02:28:16;;;;;;;206.35;191.70;;;;;;;-2.57;79.83;103880.94;4981407;28;20112;-72
2023/02/05 02:30:48;;;;;;;195.82;180.32;;;;;;;-2.43;79.33;103876.53;4984340;28;20322;-73
2023/02/05 02:33:30;;;;;;;210.83;195.73;;;;;;;-2.50;79.37;103876.94;4995527;28;20033;-70
2023/02/05 02:36:05;;;;;;;197.65;182.55;;;;;;;-2.44;79.46;103875.66;4982576;28;20310;-71
2023/02/05 02:38:43;;;;;;;206.02;191.25;;;;;;;-2.37;78.84;103860.31;4977014;28;20553;-73
2023/02/05 02:41:23;;;;;;;199.57;183.90;;;;;;;-2.37;79.10;103865.56;4977058;28;20049;-73
2023/02/05 02:43:54;;;;;;;214.77;199.35;;;;;;;-2.39;78.69;103860.44;5012576;28;20103;-72
2023/02/05 02:46:29;;;;;;;211.93;196.52;;;;;;;-2.39;79.07;103862.22;4981601;28;20045;-73
2023/02/05 02:48:59;;;;;;;199.75;184.27;;;;;;;-2.37;79.21;103876.06;4990655;28;20041;-72
2023/02/05 02:51:26;;;;;;;195.77;180.15;;;;;;;-2.34;79.28;103857.50;4997320;28;20109;-71
2023/02/05 02:53:56;;;;;;;200.98;184.95;;;;;;;-2.31;79.27;103859.88;4999668;28;20033;-73
2023/02/05 02:56:24;;;;;;;197.73;182.25;;;;;;;-2.32;78.85;103859.03;5013614;28;20115;-72
2023/02/05 02:58:55;;;;;;;209.35;192.25;;;;;;;-2.13;78.33;103863.84;4985589;28;20041;-72
2023/02/05 03:01:26;;;;;;;209.05;193.88;;;;;;;-2.22;78.11;103860.09;4985020;28;20033;-71
2023/02/05 03:03:58;;;;;;;219.15;202.82;;;;;;;-2.26;79.01;103863.03;4998204;28;20041;-72
2023/02/05 03:06:28;;;;;;;213.63;198.30;;;;;;;-2.21;79.02;103861.75;4980996;28;20037;-72
2023/02/05 03:08:59;;;;;;;208.18;191.85;;;;;;;-2.18;78.56;103860.69;4981431;28;20494;-73
2023/02/05 03:11:25;;;;;;;221.63;203.30;;;;;;;-2.15;78.17;103850.00;5018190;28;20132;-71
2023/02/05 03:13:53;;;;;;;228.82;211.75;;;;;;;-2.11;78.24;103853.22;5001659;28;20115;-70
2023/02/05 03:16:24;;;;;;;206.18;189.68;;;;;;;-2.10;77.51;103855.75;4970777;28;20042;-73
2023/02/05 03:18:50;;;;;;;209.50;192.80;;;;;;;-2.05;77.63;103863.28;4995088;28;20095;-73
2023/02/05 03:21:31;;;;;;;210.07;193.27;;;;;;;-2.07;77.60;103857.31;4993535;28;20038;-73
2023/02/05 03:23:58;;;;;;;198.70;183.38;;;;;;;-2.11;77.56;103854.06;5004842;28;20126;-73
2023/02/05 03:26:28;;;;;;;213.93;196.55;;;;;;;-2.15;78.00;103839.47;4981006;28;20033;-72
2023/02/05 03:29:05;;;;;;;214.63;197.10;;;;;;;-2.19;78.09;103838.00;4997609;28;20372;-72
2023/02/05 03:32:02;;;;;;;204.55;188.35;;;;;;;-2.22;78.10;103835.63;4985425;28;20569;-71
2023/02/05 03:34:38;;;;;;;231.80;212.00;;;;;;;-2.16;78.07;103824.69;4987949;28;20046;-71
2023/02/05 03:37:32;;;;;;;228.63;208.60;;;;;;;-2.24;78.30;103832.25;5000172;28;20596;-71
2023/02/05 03:40:16;;;;;;;203.70;187.88;;;;;;;-2.29;78.71;103821.25;4978119;28;20045;-74
2023/02/05 03:43:02;;;;;;;208.65;191.93;;;;;;;-2.34;78.77;103805.00;4981090;28;20781;-71
2023/02/05 03:45:38;;;;;;;224.68;205.80;;;;;;;-2.36;79.32;103815.59;5008514;28;20087;-73
2023/02/05 03:48:19;;;;;;;227.05;210.13;;;;;;;-2.34;79.33;103799.75;5000458;28;20030;-73
2023/02/05 03:51:00;;;;;;;210.32;193.73;;;;;;;-2.32;78.93;103782.91;4994198;28;20360;-73
2023/02/05 03:53:43;;;;;;;214.55;199.05;;;;;;;-2.38;78.98;103780.72;4988154;28;20042;-74
2023/02/05 03:56:17;;;;;;;209.73;194.43;;;;;;;-2.44;79.10;103782.94;5005006;28;20630;-71
2023/02/05 03:58:48;;;;;;;204.82;188.35;;;;;;;-2.47;79.37;103779.59;4983706;28;20136;-73
2023/02/05 04:01:17;;;;;;;204.82;188.35;;;;;;;-2.49;79.16;103764.94;4985840;28;20042;-72
2023/02/05 04:03:43;;;;;;;218.35;202.65;;;;;;;-2.47;79.03;103761.25;5032323;28;20507;-74
2023/02/05 04:06:10;;;;;;;202.25;186.20;;;;;;;-2.53;79.11;103759.03;4987727;28;20034;-71
2023/02/05 04:08:35;;;;;;;202.30;186.27;;;;;;;-2.52;79.20;103767.75;5001015;28;20434;-75
2023/02/05 04:11:02;;;;;;;225.15;208.25;;;;;;;-2.59;79.74;103775.22;5028560;28;20049;-73
2023/02/05 04:13:28;;;;;;;212.57;197.10;;;;;;;-2.56;79.80;103775.03;4999542;28;20030;-74
2023/02/05 04:15:54;;;;;;;236.85;218.90;;;;;;;-2.72;80.11;103782.28;4983679;28;20042;-73
2023/02/05 04:18:20;;;;;;;216.18;200.13;;;;;;;-2.65;80.53;103788.78;5001795;28;20036;-72
2023/02/05 04:20:48;;;;;;;256.02;233.25;;;;;;;-2.54;79.71;103783.63;4984923;28;20050;-74
2023/02/05 04:23:18;;;;;;;216.00;197.98;;;;;;;-2.43;79.28;103792.53;4985932;28;20033;-74
2023/02/05 04:25:44;;;;;;;222.75;205.55;;;;;;;-2.36;79.66;103785.91;4999669;28;20145;-73
2023/02/05 04:28:13;;;;;;;215.27;199.48;;;;;;;-2.37;79.43;103785.06;4995821;28;20060;-72
2023/02/05 04:30:40;;;;;;;216.32;200.63;;;;;;;-2.22;78.77;103775.22;4974147;28;20053;-73
2023/02/05 04:33:08;;;;;;;214.27;195.50;;;;;;;-2.25;78.39;103780.69;4987942;28;20415;-74
2023/02/05 04:35:33;;;;;;;214.48;195.88;;;;;;;-2.29;78.81;103779.25;5002916;28;20065;-72
2023/02/05 04:37:59;;;;;;;217.38;198.55;;;;;;;-2.19;78.20;103756.63;5000361;28;20041;-74
2023/02/05 04:40:25;;;;;;;216.75;200.85;;;;;;;-2.22;78.42;103748.97;4990333;28;20033;-71
2023/02/05 04:42:51;;;;;;;216.32;200.68;;;;;;;-2.20;78.71;103749.69;5001648;28;20038;-73
2023/02/05 04:45:16;;;;;;;210.23;192.55;;;;;;;-2.20;78.74;103740.03;5008041;28;20057;-74
2023/02/05 04:47:42;;;;;;;199.13;183.55;;;;;;;-2.17;78.62;103738.97;5009807;28;20072;-74
2023/02/05 04:50:08;;;;;;;210.38;195.32;;;;;;;-2.20;78.68;103737.41;5008973;28;20033;-73
2023/02/05 04:52:33;;;;;;;197.15;181.65;;;;;;;-2.20;79.20;103737.41;5006406;28;20546;-72
2023/02/05 04:54:59;;;;;;;202.00;186.18;;;;;;;-2.08;78.93;103729.59;5006246;28;20034;-71
2023/02/05 04:57:24;;;;;;;198.57;182.85;;;;;;;-2.07;78.94;103716.34;5005154;28;20099;-72
2023/02/05 04:59:50;;;;;;;199.70;183.88;;;;;;;-2.09;78.58;103701.66;4990513;28;20624;-72
2023/02/05 05:02:16;;;;;;;210.43;195.32;;;;;;;-2.09;78.33;103699.88;5007120;28;20452;-72
2023/02/05 05:04:41;;;;;;;210.50;195.38;;;;;;;-2.15;78.54;103710.81;5007780;28;20226;-73
2023/02/05 05:07:09;;;;;;;211.35;196.25;;;;;;;-2.08;78.79;103713.84;5006511;28;20037;-72
2023/02/05 05:09:36;;;;;;;200.75;185.05;;;;;;;-2.12;78.91;103723.72;4990353;28;20034;-73
2023/02/05 05:12:01;;;;;;;210.60;195.50;;;;;;;-2.10;78.03;103721.84;5003134;28;20030;-71
2023/02/05 05:14:28;;;;;;;198.43;182.82;;;;;;;-2.10;78.19;103721.84;4971280;28;20038;-74
2023/02/05 05:16:56;;;;;;;200.32;184.23;;;;;;;-2.09;78.48;103715.63;5004850;28;20092;-74
2023/02/05 05:19:22;;;;;;;209.05;194.15;;;;;;;-2.01;78.03;103708.00;5005799;28;20139;-72
2023/02/05 05:21:47;;;;;;;197.55;181.75;;;;;;;-2.02;77.67;103703.72;5003713;28;20045;-71
2023/02/05 05:24:13;;;;;;;211.27;196.07;;;;;;;-2.06;78.00;103715.38;5002874;28;20034;-73
2023/02/05 05:26:42;;;;;;;210.38;195.30;;;;;;;-2.10;78.51;103710.47;5007602;28;20034;-71
2023/02/05 05:29:10;;;;;;;197.93;182.32;;;;;;;-2.00;77.90;103704.44;5008210;28;20041;-72
2023/02/05 05:31:37;;;;;;;198.63;182.88;;;;;;;-2.06;78.17;103694.38;5021768;28;20038;-71
2023/02/05 05:34:02;;;;;;;212.60;197.50;;;;;;;-2.06;77.90;103690.91;4984687;28;20044;-73
2023/02/05 05:36:29;;;;;;;210.57;195.68;;;;;;;-2.02;77.87;103702.88;4974063;28;20033;-72
2023/02/05 05:38:54;;;;;;;209.40;194.25;;;;;;;-2.00;77.98;103701.78;5007119;28;20038;-72
2023/02/05 05:44:08;;;;;;;239.23;214.95;;;;;;;-1.93;77.42;103675.91;5006636;28;20062;-72
2023/02/05 05:46:35;;;;;;;235.98;213.35;;;;;;;-1.94;77.50;103669.81;4993842;28;20041;-74
2023/02/05 05:49:02;;;;;;;231.80;213.60;;;;;;;-2.06;77.76;103676.00;4986733;28;20499;-73
2023/02/05 05:51:29;;;;;;;239.98;219.85;;;;;;;-2.01;77.64;103681.75;5005187;28;20480;-73
2023/02/05 05:53:55;;;;;;;232.43;213.82;;;;;;;-2.03;78.15;103681.03;4991712;28;20033;-72
2023/02/05 05:56:21;;;;;;;217.52;198.10;;;;;;;-1.99;77.89;103681.63;4989465;28;20040;-74
2023/02/05 05:58:47;;;;;;;234.38;215.77;;;;;;;-1.94;77.68;103674.25;5008175;28;20495;-73
2023/02/05 06:01:15;;;;;;;237.00;217.80;;;;;;;-1.99;77.50;103671.13;5000187;28;20726;-72
2023/02/05 06:03:41;;;;;;;243.38;222.68;;;;;;;-1.98;77.45;103657.88;5004288;28;20380;-73
2023/02/05 06:06:09;;;;;;;215.65;196.52;;;;;;;-1.95;77.60;103662.06;5002340;28;20049;-74
2023/02/05 06:08:35;;;;;;;244.90;225.23;;;;;;;-1.85;77.23;103654.31;4999446;28;20030;-75
2023/02/05 06:11:01;;;;;;;216.32;196.82;;;;;;;-1.84;77.35;103648.09;4997908;28;20044;-72
2023/02/05 06:13:27;;;;;;;215.68;196.25;;;;;;;-1.89;77.67;103640.59;5009200;28;20045;-72
2023/02/05 06:15:55;;;;;;;207.95;190.65;;;;;;;-1.87;77.42;103648.34;5002938;28;20406;-71
2023/02/05 06:18:25;;;;;;;224.45;207.38;;;;;;;-1.88;77.54;103641.44;5018127;28;20045;-74
2023/02/05 06:20:50;;;;;;;228.13;210.40;;;;;;;-1.88;77.77;103644.06;5001064;28;20041;-73
2023/02/05 06:23:16;;;;;;;211.07;193.23;;;;;;;-1.82;77.95;103638.34;4987931;28;20395;-73
2023/02/05 06:25:42;;;;;;;207.18;189.60;;;;;;;-1.75;76.72;103632.50;4998056;28;20042;-74
2023/02/05 06:28:08;;;;;;;242.48;222.93;;;;;;;-1.82;77.25;103635.72;4986096;28;20040;-74
2023/02/05 06:30:33;;;;;;;246.43;226.80;;;;;;;-1.91;77.06;103637.22;4988285;28;20053;-72
2023/02/05 06:32:59;;;;;;;233.65;215.50;;;;;;;-1.92;77.39;103636.38;5004681;28;20029;-74
2023/02/05 06:35:25;;;;;;;218.32;199.10;;;;;;;-1.92;77.17;103641.66;4986961;28;20044;-74
2023/02/05 06:37:50;;;;;;;220.18;200.60;;;;;;;-1.96;77.92;103640.22;5003440;28;20056;-74
2023/02/05 06:40:16;;;;;;;230.60;212.98;;;;;;;-1.85;77.69;103635.94;4971537;28;20084;-74
2023/02/05 06:42:43;;;;;;;220.77;202.57;;;;;;;-1.94;77.14;103647.97;4986349;28;20175;-73
2023/02/05 06:45:09;;;;;;;243.90;224.70;;;;;;;-1.92;77.55;103651.31;5004294;28;20034;-73
2023/02/05 06:47:35;;;;;;;238.95;219.40;;;;;;;-1.73;77.03;103656.84;5004702;28;20045;-72
2023/02/05 06:50:01;;;;;;;270.75;247.43;;;;;;;-1.88;77.43;103659.81;5006147;28;20049;-73
2023/02/05 06:52:26;;;;;;;236.15;217.30;;;;;;;-1.92;77.33;103662.66;5007290;28;20036;-73
2023/02/05 06:54:52;;;;;;;226.45;206.43;;;;;;;-1.92;77.33;103662.66;4990945;28;20038;-74
2023/02/05 06:57:18;;;;;;;231.55;211.32;;;;;;;-1.94;77.78;103656.69;5019611;28;20037;-72
2023/02/05 06:59:44;;;;;;;239.88;220.90;;;;;;;-1.97;77.78;103649.03;4986721;28;20160;-73
2023/02/05 07:02:12;;;;;;;285.38;260.98;;;;;;;-1.83;77.39;103652.41;4998805;28;20445;-73
2023/02/05 07:04:38;;;;;;;230.77;210.05;;;;;;;-1.94;77.77;103659.31;5001304;28;20034;-73
2023/02/05 07:07:04;;;;;;;238.80;217.25;;;;;;;-1.85;77.19;103657.78;5005252;28;20042;-73
2023/02/05 07:09:30;;;;;;;239.43;220.43;;;;;;;-1.89;77.34;103666.88;4992416;28;20044;-72
2023/02/05 07:11:56;;;;;;;234.05;213.25;;;;;;;-1.90;77.57;103666.94;4985833;28;20042;-72
2023/02/05 07:14:22;;;;;;;261.10;239.30;;;;;;;-1.88;77.67;103659.81;5000860;28;20049;-73
2023/02/05 07:16:48;;;;;;;240.25;219.20;;;;;;;-1.84;77.21;103645.47;4993146;28;20041;-73
2023/02/05 07:19:13;;;;;;;260.35;239.10;;;;;;;-1.90;77.59;103640.69;5005591;28;20034;-74
2023/02/05 07:21:39;;;;;;;247.32;224.80;;;;;;;-1.86;77.61;103650.03;4987087;28;20041;-74
2023/02/05 07:24:05;;;;;;;264.33;239.88;;;;;;;-1.87;77.52;103658.84;4986629;28;20034;-74
2023/02/05 07:26:31;;;;;;;267.17;241.93;;;;;;;-1.88;77.50;103657.19;5000437;28;20037;-74
2023/02/05 07:28:57;;;;;;;280.50;254.52;;;;;;;-1.77;77.01;103646.69;5004074;28;20395;-73
2023/02/05 07:31:22;;;;;;;288.25;260.15;;;;;;;-1.86;77.79;103642.13;4999202;28;20061;-74
2023/02/05 07:33:48;;;;;;;290.35;262.65;;;;;;;-1.88;77.84;103636.19;5002558;28;20038;-72
2023/02/05 07:36:16;;;;;;;261.00;235.88;;;;;;;-1.84;77.75;103627.09;5007109;28;20038;-72
2023/02/05 07:38:44;;;;;;;286.27;260.67;;;;;;;-1.79;77.97;103630.22;5003574;28;20029;-72
2023/02/05 07:41:12;;;;;;;297.42;271.83;;;;;;;-1.81;77.80;103632.97;4999131;28;20034;-72
2023/02/05 07:43:38;;;;;;;272.70;247.85;;;;;;;-1.77;77.44;103638.81;4988345;28;20121;-73
2023/02/05 07:46:06;;;;;;;301.73;275.88;;;;;;;-1.78;77.66;103647.63;4992260;28;20125;-72
2023/02/05 07:48:32;;;;;;;253.63;231.05;;;;;;;-1.67;77.38;103655.56;5009367;28;20518;-72
2023/02/05 07:50:59;;;;;;;282.45;256.48;;;;;;;-1.69;77.18;103658.31;4981795;28;20034;-74
2023/02/05 07:53:25;;;;;;;298.48;271.38;;;;;;;-1.63;76.99;103656.13;4990642;28;20067;-71
2023/02/05 07:55:51;;;;;;;291.35;263.60;;;;;;;-1.60;76.72;103662.00;4989460;28;20398;-74
2023/02/05 07:58:16;;;;;;;277.70;251.80;;;;;;;-1.49;76.37;103658.53;4985984;28;20034;-75
2023/02/05 08:00:42;;;;;;;285.50;258.52;;;;;;;-1.53;76.45;103663.22;4981124;28;20045;-74
2023/02/05 08:03:08;;;;;;;277.95;254.05;;;;;;;-1.59;76.56;103645.28;5002146;28;20117;-75
2023/02/05 08:05:36;;;;;;;282.20;258.63;;;;;;;-1.53;76.33;103639.56;5028275;28;20125;-73
2023/02/05 08:08:03;;;;;;;210.40;192.70;;;;;;;-1.47;76.13;103644.34;4989823;28;20105;-73
2023/02/05 08:10:28;;;;;;;217.50;199.18;;;;;;;-1.40;76.01;103647.31;5000287;28;20025;-75
2023/02/05 08:12:54;;;;;;;214.07;196.18;;;;;;;-1.45;76.57;103647.69;4999675;28;20034;-74
2023/02/05 08:15:20;;;;;;;226.75;209.50;;;;;;;-1.43;76.35;103648.38;5007470;28;20042;-74
2023/02/05 08:17:45;;;;;;;219.60;200.07;;;;;;;-1.41;76.13;103649.13;5007841;28;20042;-73
2023/02/05 08:20:11;;;;;;;248.32;227.48;;;;;;;-1.33;76.04;103643.25;4989529;28;20038;-74
2023/02/05 08:22:40;;;;;;;249.00;228.02;;;;;;;-1.28;75.53;103642.91;5002284;28;20034;-74
2023/02/05 08:25:09;;;;;;;223.48;206.38;;;;;;;-1.27;75.69;103639.31;5000391;28;20642;-74
2023/02/05 08:27:36;;;;;;;228.10;210.13;;;;;;;-1.23;75.43;103630.22;5003542;28;20069;-73
2023/02/05 08:30:07;;;;;;;229.20;211.50;;;;;;;-1.34;75.56;103635.50;5017191;28;20503;-74
2023/02/05 08:32:32;;;;;;;227.82;207.68;;;;;;;-1.31;76.25;103637.88;5001129;28;20030;-72
2023/02/05 08:34:58;;;;;;;241.80;222.52;;;;;;;-1.26;75.59;103638.34;5006247;28;20065;-73
2023/02/05 08:37:24;;;;;;;220.88;201.60;;;;;;;-1.23;75.40;103646.81;4973544;28;20038;-73
2023/02/05 08:39:50;;;;;;;248.50;228.18;;;;;;;-1.15;75.91;103656.78;5004792;28;20038;-74
2023/02/05 08:42:16;;;;;;;249.90;229.82;;;;;;;-1.17;75.55;103653.41;5000596;28;20033;-74
2023/02/05 08:44:42;;;;;;;238.43;216.95;;;;;;;-1.09;75.24;103661.53;5000571;28;20124;-74
2023/02/05 08:47:07;;;;;;;251.00;230.05;;;;;;;-0.94;75.56;103655.06;4999592;28;20044;-74
2023/02/05 08:49:33;;;;;;;242.77;223.52;;;;;;;-0.92;74.96;103679.44;5005229;28;20421;-74
2023/02/05 08:51:59;;;;;;;313.40;286.67;;;;;;;-0.76;74.07;103665.91;5003278;28;20105;-74
2023/02/05 08:54:24;;;;;;;214.25;196.27;;;;;;;-0.59;73.93;103664.56;5004428;28;20034;-73
2023/02/05 08:56:51;;;;;;;247.68;228.10;;;;;;;-0.77;73.65;103658.13;5002018;28;20113;-74
2023/02/05 08:59:17;;;;;;;237.73;219.63;;;;;;;-0.84;74.29;103671.78;5002778;28;20041;-74
2023/02/05 09:01:43;;;;;;;214.48;196.18;;;;;;;-0.70;74.58;103672.47;5004027;28;20041;-74
2023/02/05 09:04:13;;;;;;;226.48;206.45;;;;;;;-0.69;74.58;103672.34;5004972;28;20037;-73
2023/02/05 09:06:39;;;;;;;253.32;229.60;;;;;;;-0.57;73.97;103681.03;4992267;28;20037;-74
2023/02/05 09:09:04;;;;;;;219.40;200.15;;;;;;;-0.57;74.00;103676.63;5008998;28;20483;-74
2023/02/05 09:11:30;;;;;;;214.25;196.38;;;;;;;-0.52;73.75;103685.94;5003385;28;20336;-72
2023/02/05 09:13:57;;;;;;;235.60;214.15;;;;;;;-0.63;73.80;103686.81;4990255;28;20041;-73
2023/02/05 09:16:24;;;;;;;215.88;197.38;;;;;;;-0.65;73.96;103686.09;4968323;28;20156;-74
2023/02/05 09:18:50;;;;;;;216.63;197.68;;;;;;;-0.69;74.38;103682.03;5005767;28;20061;-74
2023/02/05 09:21:15;;;;;;;230.57;213.07;;;;;;;-0.59;74.24;103688.25;5000921;28;20057;-74
2023/02/05 09:23:41;;;;;;;250.93;227.50;;;;;;;-0.52;73.94;103699.94;5014056;28;20183;-74
2023/02/05 09:26:08;;;;;;;254.80;233.93;;;;;;;-0.56;74.04;103696.72;4981520;28;20450;-73
2023/02/05 09:28:34;;;;;;;223.25;206.23;;;;;;;-0.44;73.97;103694.88;5005176;28;20038;-73
2023/02/05 09:31:07;;;;;;;209.80;192.23;;;;;;;-0.50;73.84;103687.50;4988107;28;20042;-74
2023/02/05 09:33:33;;;;;;;243.40;223.77;;;;;;;-0.50;74.18;103676.13;5008870;28;20040;-73
2023/02/05 09:36:07;;;;;;;215.27;197.98;;;;;;;-0.31;73.08;103679.75;4993157;28;20038;-73
2023/02/05 09:38:33;;;;;;;214.85;197.38;;;;;;;-0.48;73.94;103682.09;4994780;28;20113;-72
2023/02/05 09:41:07;;;;;;;213.48;196.05;;;;;;;-0.30;73.47;103691.97;5029905;28;20132;-74
2023/02/05 09:43:58;;;;;;;215.45;198.00;;;;;;;-0.15;73.33;103683.75;4982500;28;20381;-74
2023/02/05 09:46:27;;;;;;;223.18;205.38;;;;;;;-0.08;73.47;103684.94;4990708;28;20069;-71
2023/02/05 09:49:13;;;;;;;220.32;203.25;;;;;;;0.15;72.20;103691.78;4986065;28;20423;-71
2023/02/05 09:51:42;;;;;;;215.60;198.00;;;;;;;-0.09;72.46;103683.25;5003014;28;20034;-72
2023/02/05 09:54:19;;;;;;;223.20;205.73;;;;;;;0.01;72.37;103681.53;4986507;28;20061;-73
2023/02/05 09:56:46;;;;;;;286.58;260.13;;;;;;;0.22;71.97;103687.66;5000010;28;20038;-73
2023/02/05 09:59:18;;;;;;;245.07;223.82;;;;;;;0.31;71.21;103685.19;5018007;28;20125;-71
2023/02/05 10:02:15;;;;;;;214.18;196.88;;;;;;;0.24;71.17;103680.44;5002102;28;20084;-72
2023/02/05 10:04:41;;;;;;;219.50;202.30;;;;;;;0.28;72.28;103674.94;5019899;28;20068;-74
2023/02/05 10:07:20;;;;;;;213.80;196.23;;;;;;;0.41;71.32;103681.66;4984675;28;20069;-72
2023/02/05 10:10:01;;;;;;;210.10;192.90;;;;;;;0.38;70.74;103681.06;4997836;28;20042;-72
2023/02/05 10:12:47;;;;;;;215.25;197.75;;;;;;;0.66;70.05;103693.56;5011393;28;20088;-72
2023/02/05 10:15:40;;;;;;;215.35;197.68;;;;;;;0.56;70.15;103690.06;5004148;28;20041;-72
2023/02/05 10:18:48;;;;;;;219.27;201.85;;;;;;;0.86;69.80;103691.03;4998404;28;20034;-72
2023/02/05 10:21:28;;;;;;;222.50;205.20;;;;;;;0.60;70.37;103699.38;4990828;28;20419;-71
2023/02/05 10:24:06;;;;;;;210.18;192.68;;;;;;;0.70;69.74;103692.34;4985657;28;20081;-72
2023/02/05 10:26:50;;;;;;;213.48;196.23;;;;;;;0.42;70.58;103695.69;4989257;28;20072;-71
2023/02/05 10:29:23;;;;;;;213.05;195.65;;;;;;;0.51;70.77;103686.97;4999784;28;20061;-72
2023/02/05 10:32:22;;;;;;;223.13;206.20;;;;;;;0.58;70.42;103690.75;5002722;28;20057;-71
2023/02/05 10:35:01;;;;;;;223.48;206.57;;;;;;;0.42;71.29;103691.25;4976671;28;20201;-72
2023/02/05 10:37:49;;;;;;;211.30;193.93;;;;;;;0.61;71.02;103687.88;5001040;28;20041;-72
2023/02/05 10:40:19;;;;;;;221.00;204.27;;;;;;;0.74;70.54;103683.19;4997812;28;20076;-71
2023/02/05 10:42:48;;;;;;;221.60;204.93;;;;;;;0.63;70.27;103685.94;4988566;28;20037;-71
2023/02/05 10:45:19;;;;;;;221.43;204.73;;;;;;;0.67;70.48;103692.59;5035701;28;20038;-71
2023/02/05 10:47:59;;;;;;;222.60;205.80;;;;;;;0.79;70.27;103696.81;5002581;28;20392;-71
2023/02/05 10:50:51;;;;;;;221.63;204.82;;;;;;;0.62;70.43;103710.66;5001806;28;20480;-71
2023/02/05 10:53:20;;;;;;;234.43;216.80;;;;;;;0.89;70.13;103701.31;4988373;28;20042;-72
2023/02/05 10:55:46;;;;;;;217.02;198.93;;;;;;;0.71;70.65;103709.00;5003858;28;20038;-72
2023/02/05 10:58:34;;;;;;;215.05;197.23;;;;;;;0.73;70.22;103717.63;4986723;28;20117;-72
2023/02/05 11:01:01;;;;;;;231.65;214.27;;;;;;;0.67;70.18;103720.78;4996175;28;20534;-70
2023/02/05 11:03:27;;;;;;;226.27;209.38;;;;;;;0.73;70.04;103726.38;4986981;28;20773;-71
2023/02/05 11:05:53;;;;;;;211.48;193.13;;;;;;;0.68;70.11;103725.94;4985224;28;20445;-71
2023/02/05 11:08:46;;;;;;;249.90;229.77;;;;;;;0.79;70.79;103739.03;5030141;28;20133;-71